createdAt,value
2022-08-05T00:02:28.633Z,2.42
2022-08-05T00:04:56.392Z,2.45
2022-08-05T00:07:58.775Z,2.40
2022-08-05T00:10:10.904Z,2.40
2022-08-05T00:12:56.140Z,2.43
2022-08-05T00:15:55.933Z,2.50
2022-08-05T00:18:22.524Z,2.33
2022-08-05T00:20:50.557Z,2.30
2022-08-05T00:23:44.396Z,2.55
2022-08-05T00:26:05.551Z,2.70
2022-08-05T00:28:32.920Z,2.50
2022-08-05T00:31:02.736Z,2.53
2022-08-05T00:34:55.375Z,2.63
2022-08-05T00:37:10.923Z,2.70
2022-08-05T00:39:06.170Z,2.33
2022-08-05T00:41:55.135Z,2.90
2022-08-05T00:44:30.637Z,2.90
2022-08-05T00:47:03.914Z,2.45
2022-08-05T00:49:32.666Z,2.97
2022-08-05T00:52:11.347Z,2.43
2022-08-05T00:54:39.506Z,2.83
2022-08-05T00:57:10.602Z,3.20
2022-08-05T00:59:44.693Z,2.95
2022-08-05T01:02:12.768Z,3.30
2022-08-05T01:04:43.491Z,2.30
2022-08-05T01:07:13.784Z,2.80
2022-08-05T01:09:41.893Z,3.70
2022-08-05T01:12:18.080Z,3.05
2022-08-05T01:14:48.896Z,2.70
2022-08-05T01:17:40.339Z,2.90
2022-08-05T01:20:11.390Z,3.20
2022-08-05T01:22:47.179Z,3.08
2022-08-05T01:25:40.490Z,2.83
2022-08-05T01:28:14.302Z,2.83
2022-08-05T01:30:55.168Z,2.77
2022-08-05T01:33:26.188Z,2.53
2022-08-05T01:35:55.595Z,2.80
2022-08-05T01:38:30.003Z,3.00
2022-08-05T01:41:01.566Z,2.80
2022-08-05T01:43:30.536Z,2.80
2022-08-05T01:45:58.407Z,2.20
2022-08-05T01:48:36.428Z,2.65
2022-08-05T01:51:12.449Z,2.70
2022-08-05T01:53:57.303Z,2.60
2022-08-05T01:58:29.944Z,2.40
2022-08-05T01:59:22.535Z,2.65
2022-08-05T02:01:54.714Z,2.45
2022-08-05T02:04:24.065Z,2.60
2022-08-05T02:06:52.967Z,2.20
2022-08-05T02:09:20.562Z,2.30
2022-08-05T02:12:10.220Z,2.55
2022-08-05T02:15:12.764Z,1.88
2022-08-05T02:18:31.515Z,2.50
2022-08-05T02:21:03.288Z,2.45
2022-08-05T02:23:37.121Z,2.63
2022-08-05T02:26:09.431Z,2.70
2022-08-05T02:28:41.899Z,2.33
2022-08-05T02:31:21.129Z,2.50
2022-08-05T02:33:57.169Z,2.40
2022-08-05T02:36:27.628Z,2.80
2022-08-05T02:39:00.190Z,2.60
2022-08-05T02:41:28.366Z,2.47
2022-08-05T02:44:11.908Z,2.70
2022-08-05T02:46:43.859Z,2.30
2022-08-05T02:49:21.908Z,2.30
2022-08-05T02:52:03.026Z,2.95
2022-08-05T02:54:34.842Z,2.33
2022-08-05T02:57:09.769Z,2.38
2022-08-05T02:59:50.200Z,2.15
2022-08-05T03:02:23.674Z,2.40
2022-08-05T03:04:57.292Z,2.30
2022-08-05T03:08:00.736Z,2.17
2022-08-05T03:10:16.051Z,2.40
2022-08-05T03:12:52.699Z,2.40
2022-08-05T03:15:20.631Z,2.37
2022-08-05T03:17:47.366Z,2.60
2022-08-05T03:20:14.551Z,2.42
2022-08-05T03:22:44.081Z,2.22
2022-08-05T03:25:34.016Z,2.28
2022-08-05T03:28:06.984Z,2.60
2022-08-05T03:30:35.702Z,2.55
2022-08-05T03:33:04.151Z,2.33
2022-08-05T03:35:33.994Z,2.33
2022-08-05T03:38:07.824Z,2.38
2022-08-05T03:40:34.649Z,2.33
2022-08-05T03:43:58.226Z,2.38
2022-08-05T03:45:58.000Z,2.72
2022-08-05T03:48:29.537Z,2.40
2022-08-05T03:52:38.009Z,2.60
2022-08-05T03:55:54.743Z,2.40
2022-08-05T03:57:16.314Z,2.30
2022-08-05T04:00:08.375Z,2.33
2022-08-05T04:02:58.120Z,2.65
2022-08-05T04:05:36.172Z,2.45
2022-08-05T04:08:14.594Z,2.40
2022-08-05T04:10:50.183Z,2.60
2022-08-05T04:13:18.562Z,2.60
2022-08-05T04:16:03.393Z,3.08
2022-08-05T04:18:32.268Z,2.92
2022-08-05T04:21:02.145Z,2.93
2022-08-05T04:24:04.836Z,2.55
2022-08-05T04:26:18.794Z,2.80
2022-08-05T04:28:51.229Z,2.80
2022-08-05T04:31:19.790Z,2.60
2022-08-05T04:34:19.201Z,2.23
2022-08-05T04:36:45.753Z,2.22
2022-08-05T04:39:20.309Z,2.40
2022-08-05T04:41:48.501Z,2.40
2022-08-05T04:44:21.202Z,2.50
2022-08-05T04:46:55.953Z,2.33
2022-08-05T04:49:24.754Z,2.58
2022-08-05T04:52:07.657Z,3.42
2022-08-05T04:54:35.137Z,2.58
2022-08-05T04:57:02.313Z,2.33
2022-08-05T04:59:39.065Z,2.43
2022-08-05T05:02:36.980Z,2.53
2022-08-05T05:05:01.915Z,2.65
2022-08-05T05:07:32.359Z,2.45
2022-08-05T05:10:02.118Z,2.45
2022-08-05T05:12:29.921Z,2.70
2022-08-05T05:14:56.691Z,2.65
2022-08-05T05:17:55.396Z,2.50
2022-08-05T05:20:12.670Z,2.40
2022-08-05T05:22:40.977Z,2.00
2022-08-05T05:25:16.519Z,2.00
2022-08-05T05:27:53.586Z,2.55
2022-08-05T05:30:29.433Z,2.20
2022-08-05T05:33:00.368Z,2.45
2022-08-05T05:35:34.433Z,3.22
2022-08-05T05:38:09.347Z,2.20
2022-08-05T05:40:47.931Z,2.53
2022-08-05T05:43:22.229Z,2.33
2022-08-05T05:46:05.264Z,2.20
2022-08-05T05:48:32.609Z,2.25
2022-08-05T05:51:15.097Z,2.17
2022-08-05T05:53:54.665Z,2.20
2022-08-05T05:56:32.806Z,2.20
2022-08-05T05:59:06.925Z,2.03
2022-08-05T06:01:37.995Z,2.03
2022-08-05T06:04:07.465Z,2.10
2022-08-05T06:06:35.208Z,2.25
2022-08-05T06:09:04.208Z,2.17
2022-08-05T06:11:31.946Z,2.30
2022-08-05T06:14:00.462Z,2.05
2022-08-05T06:16:36.741Z,1.60
2022-08-05T06:19:05.879Z,1.52
2022-08-05T06:21:36.428Z,1.90
2022-08-05T06:24:12.065Z,1.80
2022-08-05T06:26:51.733Z,1.73
2022-08-05T06:29:25.444Z,1.90
2022-08-05T06:32:21.256Z,1.90
2022-08-05T06:34:56.379Z,1.80
2022-08-05T06:37:57.728Z,1.98
2022-08-05T06:40:12.955Z,2.45
2022-08-05T06:42:40.826Z,1.73
2022-08-05T06:45:09.339Z,2.30
2022-08-05T06:48:36.686Z,1.83
2022-08-05T06:50:24.920Z,1.75
2022-08-05T06:52:58.867Z,1.90
2022-08-05T06:55:38.619Z,2.73
2022-08-05T06:58:29.804Z,1.70
2022-08-05T07:00:59.864Z,2.10
2022-08-05T07:03:27.941Z,1.80
2022-08-05T07:06:00.010Z,1.88
2022-08-05T07:08:28.768Z,1.67
2022-08-05T07:10:55.815Z,1.67
2022-08-05T07:13:57.947Z,2.00
2022-08-05T07:17:57.033Z,2.05
2022-08-05T07:22:28.116Z,1.63
2022-08-05T07:24:58.461Z,1.40
2022-08-05T07:27:27.763Z,1.85
2022-08-05T07:30:22.803Z,1.73
2022-08-05T07:32:58.064Z,1.52
2022-08-05T07:36:04.783Z,1.73
2022-08-05T07:38:26.506Z,1.50
2022-08-05T07:41:01.678Z,1.50
2022-08-05T07:43:43.980Z,1.60
2022-08-05T07:46:25.466Z,1.50
2022-08-05T07:49:02.099Z,2.23
2022-08-05T07:51:37.206Z,1.40
2022-08-05T07:54:10.043Z,1.75
2022-08-05T07:57:00.233Z,2.47
2022-08-05T07:59:39.103Z,1.60
2022-08-05T08:02:17.070Z,1.80
2022-08-05T08:04:46.139Z,1.40
2022-08-05T08:07:13.686Z,1.40
2022-08-05T08:09:40.634Z,2.17
2022-08-05T08:12:34.993Z,1.13
2022-08-05T08:14:54.733Z,1.20
2022-08-05T08:17:21.987Z,1.20
2022-08-05T08:20:23.478Z,1.65
2022-08-05T08:22:37.405Z,1.25
2022-08-05T08:25:16.079Z,1.10
2022-08-05T08:27:47.390Z,2.17
2022-08-05T08:30:29.688Z,1.20
2022-08-05T08:33:08.836Z,1.40
2022-08-05T08:35:52.223Z,1.27
2022-08-05T08:38:32.160Z,1.50
2022-08-05T08:41:05.713Z,1.37
2022-08-05T08:45:21.191Z,1.60
2022-08-05T08:46:23.154Z,1.20
2022-08-05T08:49:06.121Z,1.33
2022-08-05T08:52:04.220Z,1.70
2022-08-05T08:54:27.328Z,1.67
2022-08-05T08:56:54.556Z,1.10
2022-08-05T08:59:27.695Z,1.20
2022-08-05T09:02:04.363Z,1.13
2022-08-05T09:04:58.558Z,1.20
2022-08-05T09:07:28.869Z,1.20
2022-08-05T09:09:56.264Z,1.13
2022-08-05T09:12:27.246Z,1.30
2022-08-05T09:14:59.413Z,1.20
2022-08-05T09:17:40.579Z,1.00
2022-08-05T09:20:11.039Z,1.40
2022-08-05T09:23:05.478Z,1.50
2022-08-05T09:26:02.926Z,1.50
2022-08-05T09:28:24.498Z,1.25
2022-08-05T09:31:43.748Z,1.20
2022-08-05T09:34:04.829Z,1.10
2022-08-05T09:36:55.129Z,1.13
2022-08-05T09:39:27.758Z,1.10
2022-08-05T09:42:11.449Z,1.02
2022-08-05T09:44:52.669Z,1.17
2022-08-05T09:47:26.155Z,1.40
2022-08-05T09:50:01.132Z,1.15
2022-08-05T09:52:33.802Z,1.10
2022-08-05T09:55:57.571Z,1.15
2022-08-05T09:58:00.294Z,1.00
2022-08-05T10:00:30.546Z,1.23
2022-08-05T10:02:58.893Z,1.38
2022-08-05T10:05:28.412Z,1.17
2022-08-05T10:08:36.009Z,1.27
2022-08-05T10:10:44.358Z,1.20
2022-08-05T10:13:25.651Z,1.10
2022-08-05T10:16:00.411Z,1.10
2022-08-05T10:18:31.934Z,1.27
2022-08-05T10:21:06.127Z,1.30
2022-08-05T10:23:59.235Z,1.20
2022-08-05T10:26:31.626Z,1.40
2022-08-05T10:28:59.892Z,1.10
2022-08-05T10:32:54.990Z,1.42
2022-08-05T10:34:14.323Z,1.48
2022-08-05T10:36:44.394Z,1.70
2022-08-05T10:40:03.699Z,1.10
2022-08-05T10:46:24.280Z,1.20
2022-08-05T10:49:05.058Z,1.52
2022-08-05T10:52:00.343Z,3.97
2022-08-05T10:55:01.966Z,1.30
2022-08-05T10:57:31.724Z,1.20
2022-08-05T11:00:13.376Z,1.85
2022-08-05T11:03:25.508Z,2.15
2022-08-05T11:06:15.974Z,1.45
2022-08-05T11:09:16.987Z,2.10
2022-08-05T11:11:53.653Z,2.00
2022-08-05T11:14:57.830Z,1.48
2022-08-05T11:17:57.725Z,2.22
2022-08-05T11:20:37.443Z,1.63
2022-08-05T11:24:02.974Z,1.00
2022-08-05T11:26:28.731Z,1.10
2022-08-05T11:29:11.383Z,1.20
2022-08-05T11:31:54.138Z,1.30
2022-08-05T11:34:52.037Z,1.77
2022-08-05T11:38:28.778Z,2.97
2022-08-05T11:41:34.996Z,3.25
2022-08-05T11:44:07.473Z,1.05
2022-08-05T11:47:11.726Z,5.45
2022-08-05T11:49:27.823Z,2.00
2022-08-05T11:51:54.914Z,2.43
2022-08-05T11:54:33.246Z,1.80
2022-08-05T11:57:08.796Z,5.13
2022-08-05T11:59:50.676Z,2.42
2022-08-05T12:02:30.298Z,1.65
2022-08-05T12:05:07.344Z,1.10
2022-08-05T12:08:07.485Z,1.40
2022-08-05T12:10:43.550Z,1.52
2022-08-05T12:13:27.908Z,1.40
2022-08-05T12:16:14.143Z,1.60
2022-08-05T12:18:42.673Z,1.50
2022-08-05T12:21:26.943Z,1.60
2022-08-05T12:24:04.611Z,1.42
2022-08-05T12:26:52.769Z,1.27
2022-08-05T12:29:29.150Z,1.13
2022-08-05T12:32:08.753Z,1.30
2022-08-05T12:34:37.773Z,1.50
2022-08-05T12:37:29.892Z,1.45
2022-08-05T12:40:03.560Z,1.10
2022-08-05T12:42:37.550Z,1.15
2022-08-05T12:45:08.868Z,1.60
2022-08-05T12:47:37.568Z,1.10
2022-08-05T12:50:19.762Z,1.38
2022-08-05T12:52:59.874Z,2.00
2022-08-05T12:55:28.881Z,1.25
2022-08-05T12:58:50.934Z,1.30
2022-08-05T13:02:03.862Z,1.35
2022-08-05T13:03:41.460Z,1.40
2022-08-05T13:06:18.141Z,1.58
2022-08-05T13:08:51.920Z,1.60
2022-08-05T13:11:25.559Z,1.47
2022-08-05T13:14:36.786Z,1.50
2022-08-05T13:17:31.693Z,1.35
2022-08-05T13:20:09.472Z,1.30
2022-08-05T13:22:43.865Z,1.80
2022-08-05T13:25:18.825Z,1.50
2022-08-05T13:27:52.589Z,1.10
2022-08-05T13:30:34.629Z,1.20
2022-08-05T13:33:04.070Z,1.20
2022-08-05T13:35:47.515Z,1.30
2022-08-05T13:38:28.271Z,1.23
2022-08-05T13:40:59.032Z,1.35
2022-08-05T13:43:45.825Z,1.17
2022-08-05T13:46:14.880Z,1.52
2022-08-05T13:48:58.070Z,1.73
2022-08-05T13:51:29.628Z,1.27
2022-08-05T13:54:03.704Z,1.33
2022-08-05T13:56:44.981Z,1.30
2022-08-05T13:59:19.407Z,1.30
2022-08-05T14:01:58.360Z,1.20
2022-08-05T14:04:51.409Z,1.37
2022-08-05T14:08:01.223Z,1.20
2022-08-05T14:10:27.920Z,1.10
2022-08-05T14:12:57.117Z,1.08
2022-08-05T14:16:07.161Z,1.30
2022-08-05T14:18:17.745Z,1.20
2022-08-05T14:20:47.655Z,1.10
2022-08-05T14:23:23.470Z,2.50
2022-08-05T14:25:57.988Z,1.20
2022-08-05T14:28:26.861Z,1.10
2022-08-05T14:30:55.069Z,1.10
2022-08-05T14:33:22.481Z,1.10
2022-08-05T14:35:51.756Z,0.95
2022-08-05T14:38:32.816Z,1.00
2022-08-05T14:41:07.435Z,1.05
2022-08-05T14:43:57.500Z,1.10
2022-08-05T14:46:29.117Z,1.10
2022-08-05T14:48:59.728Z,1.15
2022-08-05T14:51:34.328Z,1.10
2022-08-05T14:54:26.241Z,1.40
2022-08-05T14:56:48.561Z,1.30
2022-08-05T14:59:15.758Z,1.27
2022-08-05T15:01:48.916Z,1.42
2022-08-05T15:04:20.759Z,1.60
2022-08-05T15:06:50.507Z,1.20
2022-08-05T15:09:54.043Z,1.33
2022-08-05T15:12:09.360Z,1.50
2022-08-05T15:14:48.279Z,1.50
2022-08-05T15:17:45.737Z,1.23
2022-08-05T15:20:06.014Z,1.20
2022-08-05T15:22:32.823Z,1.30
2022-08-05T15:25:00.523Z,1.40
2022-08-05T15:27:38.850Z,1.35
2022-08-05T15:30:10.946Z,1.42
2022-08-05T15:32:41.237Z,1.17
2022-08-05T15:35:10.616Z,1.47
2022-08-05T15:38:08.616Z,1.38
2022-08-05T15:40:58.793Z,1.30
2022-08-05T15:43:20.536Z,1.83
2022-08-05T15:46:00.649Z,1.25
2022-08-05T15:48:29.813Z,1.50
2022-08-05T15:50:57.146Z,1.35
2022-08-05T15:53:26.615Z,1.20
2022-08-05T15:56:14.025Z,1.13
2022-08-05T15:58:41.203Z,1.20
2022-08-05T16:01:16.453Z,1.30
2022-08-05T16:03:50.525Z,1.48
2022-08-05T16:06:20.427Z,1.52
2022-08-05T16:08:51.084Z,1.50
2022-08-05T16:11:18.290Z,1.50
2022-08-05T16:13:48.406Z,2.23
2022-08-05T16:16:15.913Z,1.70
2022-08-05T16:18:52.902Z,1.65
2022-08-05T16:21:20.763Z,1.92
2022-08-05T16:24:12.794Z,1.27
2022-08-05T16:26:53.841Z,1.37
2022-08-05T16:29:25.302Z,1.30
2022-08-05T16:31:57.005Z,1.88
2022-08-05T16:34:25.835Z,1.98
2022-08-05T16:36:54.115Z,1.90
2022-08-05T16:39:21.447Z,1.37
2022-08-05T16:42:14.196Z,1.95
2022-08-05T16:44:44.448Z,1.88
2022-08-05T16:47:28.868Z,1.83
2022-08-05T16:50:10.521Z,1.80
2022-08-05T16:52:37.387Z,1.70
2022-08-05T16:55:04.895Z,1.30
2022-08-05T16:57:53.535Z,1.17
2022-08-05T17:00:26.072Z,1.20
2022-08-05T17:03:02.941Z,1.10
2022-08-05T17:05:30.983Z,1.50
2022-08-05T17:07:57.998Z,1.48
2022-08-05T17:10:26.519Z,1.50
2022-08-05T17:12:57.944Z,1.30
2022-08-05T17:15:47.756Z,1.50
2022-08-05T17:18:14.065Z,1.47
2022-08-05T17:20:41.900Z,2.63
2022-08-05T17:23:10.995Z,2.45
2022-08-05T17:25:57.812Z,1.63
2022-08-05T17:28:25.072Z,1.50
2022-08-05T17:30:55.785Z,2.00
2022-08-05T17:33:23.062Z,1.40
2022-08-05T17:36:09.153Z,1.40
2022-08-05T17:38:37.154Z,1.60
2022-08-05T17:41:07.008Z,1.50
2022-08-05T17:43:53.416Z,1.23
2022-08-05T17:46:21.259Z,1.33
2022-08-05T17:48:48.196Z,1.55
2022-08-05T17:51:21.742Z,1.45
2022-08-05T17:53:50.798Z,1.50
2022-08-05T17:56:22.578Z,2.23
2022-08-05T17:58:49.828Z,1.90
2022-08-05T18:01:18.592Z,1.70
2022-08-05T18:03:59.394Z,1.90
2022-08-05T18:06:31.541Z,1.50
2022-08-05T18:08:59.693Z,1.70
2022-08-05T18:11:33.604Z,1.40
2022-08-05T18:14:07.296Z,1.60
2022-08-05T18:16:51.231Z,1.60
2022-08-05T18:19:23.038Z,1.30
2022-08-05T18:22:09.196Z,1.20
2022-08-05T18:24:37.909Z,1.10
2022-08-05T18:27:06.912Z,1.40
2022-08-05T18:29:47.352Z,1.40
2022-08-05T18:32:17.493Z,1.58
2022-08-05T18:34:44.285Z,1.40
2022-08-05T18:37:33.389Z,1.45
2022-08-05T18:41:50.581Z,1.30
2022-08-05T18:42:47.296Z,1.40
2022-08-05T18:45:14.098Z,1.75
2022-08-05T18:47:43.036Z,2.07
2022-08-05T18:50:45.016Z,1.58
2022-08-05T18:53:20.537Z,1.30
2022-08-05T18:55:51.407Z,1.30
2022-08-05T18:58:18.668Z,1.60
2022-08-05T19:00:54.226Z,1.20
2022-08-05T19:03:55.169Z,1.58
2022-08-05T19:06:18.860Z,1.38
2022-08-05T19:08:48.420Z,1.40
2022-08-05T19:11:16.431Z,1.80
2022-08-05T19:14:01.221Z,1.60
2022-08-05T19:16:36.872Z,1.30
2022-08-05T19:19:14.501Z,1.80
2022-08-05T19:21:41.312Z,1.52
2022-08-05T19:24:12.606Z,1.73
2022-08-05T19:26:43.747Z,1.83
2022-08-05T19:29:22.625Z,1.63
2022-08-05T19:31:50.942Z,1.55
2022-08-05T19:34:18.774Z,1.48
2022-08-05T19:36:45.641Z,1.90
2022-08-05T19:39:17.294Z,1.40
2022-08-05T19:42:06.330Z,1.33
2022-08-05T19:44:31.162Z,1.40
2022-08-05T19:46:57.946Z,1.42
2022-08-05T19:49:25.168Z,1.50
2022-08-05T19:52:09.377Z,1.63
2022-08-05T19:54:38.886Z,1.95
2022-08-05T19:57:09.681Z,1.90
2022-08-05T20:00:00.436Z,1.88
2022-08-05T20:02:30.397Z,1.70
2022-08-05T20:04:59.619Z,1.53
2022-08-05T20:07:48.187Z,1.58
2022-08-05T20:10:15.445Z,1.60
2022-08-05T20:12:46.083Z,1.52
2022-08-05T20:15:15.905Z,1.48
2022-08-05T20:18:04.274Z,1.80
2022-08-05T20:20:38.649Z,2.22
2022-08-05T20:23:05.958Z,2.47
2022-08-05T20:25:39.899Z,2.53
2022-08-05T20:28:14.580Z,2.53
2022-08-05T20:30:41.794Z,2.13
2022-08-05T20:33:09.058Z,2.03
2022-08-05T20:35:40.445Z,4.18
2022-08-05T20:38:20.115Z,3.17
2022-08-05T20:40:50.470Z,2.10
2022-08-05T20:43:57.690Z,2.53
2022-08-05T20:46:06.733Z,1.92
2022-08-05T20:48:37.009Z,2.42
2022-08-05T20:51:08.099Z,1.92
2022-08-05T20:53:36.730Z,1.85
2022-08-05T20:56:09.511Z,1.83
2022-08-05T20:58:37.022Z,2.20
2022-08-05T21:01:04.568Z,2.63
2022-08-05T21:03:34.388Z,2.40
2022-08-05T21:06:02.132Z,2.30
2022-08-05T21:08:41.808Z,2.93
2022-08-05T21:11:11.625Z,3.10
2022-08-05T21:13:56.393Z,3.08
2022-08-05T21:16:30.134Z,2.92
2022-08-05T21:19:00.317Z,2.60
2022-08-05T21:21:39.154Z,2.50
2022-08-05T21:24:12.926Z,2.85
2022-08-05T21:26:41.439Z,2.30
2022-08-05T21:29:10.134Z,2.10
2022-08-05T21:31:43.427Z,2.47
2022-08-05T21:34:11.078Z,2.13
2022-08-05T21:36:38.467Z,2.20
2022-08-05T21:39:05.393Z,2.65
2022-08-05T21:41:35.347Z,2.38
2022-08-05T21:44:04.481Z,3.40
2022-08-05T21:46:34.251Z,2.23
2022-08-05T21:49:07.322Z,3.30
2022-08-05T21:52:23.004Z,2.80
2022-08-05T21:54:30.836Z,3.03
2022-08-05T21:57:28.340Z,3.03
2022-08-05T22:00:03.087Z,3.00
2022-08-05T22:02:39.984Z,3.80
2022-08-05T22:05:09.344Z,3.47
2022-08-05T22:07:40.362Z,3.22
2022-08-05T22:10:26.743Z,3.00
2022-08-05T22:12:57.530Z,2.07
2022-08-05T22:16:01.098Z,2.60
2022-08-05T22:18:14.565Z,2.50
2022-08-05T22:20:41.996Z,2.28
2022-08-05T22:24:01.900Z,2.40
2022-08-05T22:26:35.923Z,2.20
2022-08-05T22:29:03.499Z,2.17
2022-08-05T22:31:30.731Z,2.30
2022-08-05T22:34:20.092Z,2.15
2022-08-05T22:36:55.827Z,2.45
2022-08-05T22:39:22.840Z,2.40
2022-08-05T22:42:09.306Z,2.17
2022-08-05T22:44:36.965Z,2.25
2022-08-05T22:47:05.025Z,2.45
2022-08-05T22:50:20.984Z,2.38
2022-08-05T22:52:30.319Z,2.50
2022-08-05T22:55:01.375Z,2.22
2022-08-05T22:57:34.044Z,2.50
2022-08-05T23:00:05.706Z,2.00
2022-08-05T23:02:35.461Z,1.90
2022-08-05T23:05:13.700Z,2.10
2022-08-05T23:07:48.188Z,2.03
2022-08-05T23:10:20.286Z,2.45
2022-08-05T23:12:51.154Z,2.53
2022-08-05T23:15:21.659Z,2.35
2022-08-05T23:18:01.601Z,2.20
2022-08-05T23:20:33.777Z,2.10
2022-08-05T23:23:05.859Z,2.25
2022-08-05T23:25:51.003Z,2.20
2022-08-05T23:28:20.963Z,2.50
2022-08-05T23:30:53.651Z,2.03
2022-08-05T23:33:26.487Z,2.20
2022-08-05T23:36:11.166Z,2.42
2022-08-05T23:38:41.082Z,2.22
2022-08-05T23:41:09.636Z,2.20
2022-08-05T23:43:37.288Z,2.20
2022-08-05T23:46:23.417Z,2.05
2022-08-05T23:49:00.371Z,2.15
2022-08-05T23:51:53.414Z,2.22
2022-08-05T23:54:26.779Z,1.77
2022-08-05T23:57:03.312Z,2.37
